Time;durP1;ratioP1;P1;durP2;ratioP2;P2;SDS_P1;SDS_P2;PMS_P1;PMS_P2;Temp;Humidity;BMP_temperature;BMP_pressure;BME280_temperature;BME280_humidity;BME280_pressure;Samples;Min_cycle;Max_cycle;Signal;HPM_P1;HPM_P2
2023/08/29 00:02:23;;;;;;;4.07;3.40;;;19.10;67.10;;;;;;5072201;28;20183;-70
2023/08/29 00:04:50;;;;;;;3.83;2.70;;;19.20;65.60;;;;;;5070514;28;20175;-68
2023/08/29 00:07:17;;;;;;;4.57;2.80;;;19.30;65.70;;;;;;5072136;28;20182;-68
2023/08/29 00:09:45;;;;;;;7.53;3.03;;;19.40;64.60;;;;;;5071834;28;20590;-71
2023/08/29 00:12:12;;;;;;;5.73;2.60;;;19.50;64.60;;;;;;5071890;28;20342;-70
2023/08/29 00:14:40;;;;;;;7.67;3.30;;;19.70;63.80;;;;;;5071769;28;20270;-68
2023/08/29 00:17:08;;;;;;;7.17;2.67;;;19.70;63.10;;;;;;5067662;28;20269;-68
2023/08/29 00:19:35;;;;;;;7.50;3.50;;;19.70;62.60;;;;;;5071941;28;20189;-66
2023/08/29 00:22:02;;;;;;;7.00;3.10;;;19.70;61.50;;;;;;5071541;28;20225;-69
2023/08/29 00:24:30;;;;;;;6.03;3.80;;;19.80;61.60;;;;;;5072168;28;20183;-66
2023/08/29 00:26:57;;;;;;;4.37;3.50;;;19.60;61.40;;;;;;5071505;28;20274;-66
2023/08/29 00:29:26;;;;;;;5.90;3.20;;;19.70;62.20;;;;;;5072152;28;20187;-68
2023/08/29 00:31:53;;;;;;;5.63;2.73;;;20.00;60.00;;;;;;5070856;28;20645;-65
2023/08/29 00:34:21;;;;;;;5.93;2.30;;;20.30;58.50;;;;;;5070757;28;20260;-68
2023/08/29 00:36:48;;;;;;;3.60;2.10;;;20.30;58.30;;;;;;5071168;28;20221;-71
2023/08/29 00:39:15;;;;;;;5.50;1.90;;;20.30;58.60;;;;;;5071805;28;20698;-65
2023/08/29 00:41:45;;;;;;;3.43;2.10;;;20.30;56.80;;;;;;5071424;28;20187;-70
2023/08/29 00:44:12;;;;;;;4.83;1.80;;;20.30;56.70;;;;;;5071854;28;20187;-70
2023/08/29 00:46:39;;;;;;;6.50;1.70;;;20.60;56.10;;;;;;5071314;28;20187;-68
2023/08/29 00:49:07;;;;;;;3.33;1.77;;;20.30;55.50;;;;;;5070650;28;20637;-68
2023/08/29 00:51:34;;;;;;;8.50;2.03;;;20.10;55.50;;;;;;5068676;28;20191;-67
2023/08/29 00:54:03;;;;;;;4.03;2.00;;;20.20;55.90;;;;;;5071174;28;20183;-67
2023/08/29 00:56:30;;;;;;;4.33;1.77;;;20.30;55.50;;;;;;5070713;28;20688;-71
2023/08/29 00:58:58;;;;;;;4.77;1.63;;;20.20;55.60;;;;;;5071068;28;20241;-67
2023/08/29 01:01:26;;;;;;;4.30;2.10;;;20.50;55.60;;;;;;5071529;28;20175;-67
2023/08/29 01:03:54;;;;;;;11.43;3.13;;;20.50;54.50;;;;;;5070686;28;20758;-71
2023/08/29 01:06:21;;;;;;;7.13;2.30;;;20.50;55.20;;;;;;5070996;28;20176;-67
2023/08/29 01:08:49;;;;;;;6.40;2.07;;;20.70;55.40;;;;;;5070882;28;20175;-72
2023/08/29 01:11:22;;;;;;;4.80;1.63;;;20.90;54.50;;;;;;5075402;28;20187;-69
2023/08/29 01:14:30;;;;;;;3.57;2.13;;;21.20;52.50;;;;;;5074982;28;20175;-71
2023/08/29 01:17:06;;;;;;;8.50;1.93;;;21.40;51.10;;;;;;5073969;28;20213;-67
2023/08/29 01:19:41;;;;;;;4.63;1.80;;;21.40;49.70;;;;;;5071638;28;20541;-67
2023/08/29 01:22:27;;;;;;;2.30;1.57;;;21.20;50.90;;;;;;5070152;28;20641;-66
2023/08/29 01:24:58;;;;;;;6.50;1.40;;;21.40;50.40;;;;;;5072910;28;20249;-70
2023/08/29 01:27:27;;;;;;;3.90;1.67;;;21.50;49.90;;;;;;5075004;28;20183;-66
2023/08/29 01:29:56;;;;;;;2.33;1.47;;;21.70;47.60;;;;;;5074520;28;20634;-66
2023/08/29 01:32:25;;;;;;;2.73;1.53;;;22.00;48.40;;;;;;5074141;28;20250;-71
2023/08/29 01:34:53;;;;;;;2.03;1.40;;;22.30;47.00;;;;;;5074873;28;20241;-73
2023/08/29 01:37:21;;;;;;;2.60;1.40;;;22.40;46.70;;;;;;5074080;28;20219;-64
2023/08/29 01:39:48;;;;;;;2.00;1.40;;;22.40;46.40;;;;;;5073330;28;20203;-65
2023/08/29 01:42:15;;;;;;;2.50;1.47;;;22.30;44.80;;;;;;5074460;28;20187;-66
2023/08/29 01:44:43;;;;;;;3.83;1.70;;;22.40;46.10;;;;;;5074557;28;20217;-66
2023/08/29 01:47:10;;;;;;;2.07;1.50;;;22.80;45.40;;;;;;5074694;28;20207;-64
2023/08/29 01:49:38;;;;;;;3.10;1.37;;;22.80;45.80;;;;;;5074355;28;20222;-66
2023/08/29 01:52:05;;;;;;;4.03;1.63;;;22.70;46.20;;;;;;5073747;28;20197;-68
2023/08/29 01:54:33;;;;;;;1.40;1.20;;;22.80;45.80;;;;;;5074675;28;20183;-66
2023/08/29 01:57:03;;;;;;;2.27;1.63;;;22.90;45.00;;;;;;5074238;28;20227;-65
2023/08/29 01:59:31;;;;;;;7.43;4.53;;;23.20;46.00;;;;;;5073937;28;20183;-67
2023/08/29 02:02:00;;;;;;;4.43;2.40;;;23.20;45.90;;;;;;5074100;28;20859;-65
2023/08/29 02:04:29;;;;;;;5.53;1.97;;;23.00;44.90;;;;;;5074305;28;20183;-65
2023/08/29 02:06:56;;;;;;;4.13;1.70;;;23.40;45.90;;;;;;5073578;28;20263;-67
2023/08/29 02:09:24;;;;;;;5.60;1.77;;;23.80;44.80;;;;;;5074286;28;20183;-66
2023/08/29 02:11:51;;;;;;;3.10;1.70;;;23.70;46.20;;;;;;5073390;28;20206;-67
2023/08/29 02:14:18;;;;;;;3.53;1.83;;;23.50;47.40;;;;;;5073788;28;20182;-65
2023/08/29 02:16:46;;;;;;;3.10;1.50;;;23.60;46.20;;;;;;5071236;28;20199;-66
2023/08/29 02:19:13;;;;;;;5.63;1.83;;;23.70;45.80;;;;;;5073676;28;20210;-65
2023/08/29 02:21:40;;;;;;;5.50;2.60;;;23.70;46.00;;;;;;5072070;28;20183;-67
2023/08/29 02:24:08;;;;;;;3.87;2.20;;;23.60;49.10;;;;;;5070849;28;20214;-65
2023/08/29 02:26:35;;;;;;;5.63;2.60;;;24.00;48.30;;;;;;5072942;28;20665;-66
2023/08/29 02:29:02;;;;;;;6.77;2.90;;;23.90;48.10;;;;;;5072728;28;20178;-66
2023/08/29 02:31:30;;;;;;;8.13;2.50;;;23.90;49.80;;;;;;5071637;28;20179;-65
2023/08/29 02:33:57;;;;;;;9.30;3.20;;;23.80;49.50;;;;;;5073249;28;20223;-67
2023/08/29 02:36:24;;;;;;;6.97;2.93;;;23.50;50.80;;;;;;5073428;28;20233;-67
2023/08/29 02:38:53;;;;;;;4.77;3.10;;;23.60;50.50;;;;;;5073330;28;20187;-65
2023/08/29 02:41:20;;;;;;;9.73;2.70;;;23.80;50.20;;;;;;5072234;28;20168;-65
2023/08/29 02:43:48;;;;;;;9.57;3.23;;;23.90;50.40;;;;;;5071966;28;20183;-67
2023/08/29 02:46:15;;;;;;;3.73;1.70;;;24.10;49.80;;;;;;5073245;28;20221;-66
2023/08/29 02:48:42;;;;;;;2.90;2.23;;;23.60;49.90;;;;;;5073464;28;20274;-66
2023/08/29 02:51:09;;;;;;;7.27;2.33;;;23.10;51.40;;;;;;5070635;28;20179;-65
2023/08/29 02:53:37;;;;;;;10.97;2.77;;;23.50;51.90;;;;;;5065094;28;20641;-65
2023/08/29 02:56:04;;;;;;;3.83;2.33;;;23.70;51.00;;;;;;5072039;28;20282;-66
2023/08/29 02:58:32;;;;;;;4.63;2.50;;;23.60;51.20;;;;;;5068245;28;20219;-67
2023/08/29 03:00:59;;;;;;;9.37;2.77;;;23.80;50.70;;;;;;5069945;28;20645;-66
2023/08/29 03:03:27;;;;;;;4.23;2.70;;;23.80;50.80;;;;;;5071853;28;20187;-66
2023/08/29 03:05:58;;;;;;;5.77;2.50;;;24.20;50.80;;;;;;5071097;28;20584;-65
2023/08/29 03:08:26;;;;;;;8.10;2.63;;;23.90;51.50;;;;;;5072021;28;20591;-67
2023/08/29 03:10:54;;;;;;;7.43;2.70;;;24.30;49.80;;;;;;5071366;28;20512;-67
2023/08/29 03:13:22;;;;;;;7.10;3.00;;;24.20;50.40;;;;;;5073316;28;20179;-67
2023/08/29 03:15:50;;;;;;;4.17;2.80;;;24.20;50.20;;;;;;5069767;28;20274;-68
2023/08/29 03:18:17;;;;;;;5.67;3.23;;;24.20;50.40;;;;;;5071832;28;20337;-69
2023/08/29 03:20:45;;;;;;;4.87;2.67;;;24.60;50.00;;;;;;5071333;28;20576;-67
2023/08/29 03:23:13;;;;;;;7.17;2.87;;;24.80;49.20;;;;;;5068041;28;20210;-65
2023/08/29 03:25:40;;;;;;;5.20;2.70;;;24.30;50.10;;;;;;5071078;28;20214;-68
2023/08/29 03:28:07;;;;;;;4.93;2.73;;;24.40;50.10;;;;;;5071203;28;20191;-67
2023/08/29 03:30:35;;;;;;;7.70;2.43;;;24.10;50.00;;;;;;5071809;28;20262;-68
2023/08/29 03:33:02;;;;;;;7.30;2.07;;;24.00;51.20;;;;;;5071822;28;20223;-67
2023/08/29 03:35:30;;;;;;;5.57;2.83;;;23.80;51.00;;;;;;5072702;28;20179;-69
2023/08/29 03:37:57;;;;;;;5.63;2.20;;;23.70;51.80;;;;;;5072002;28;20787;-73
2023/08/29 03:40:25;;;;;;;6.57;2.37;;;24.10;51.10;;;;;;5072475;28;20179;-70
2023/08/29 03:42:52;;;;;;;5.60;2.80;;;24.10;51.00;;;;;;5071927;28;20643;-67
2023/08/29 03:45:19;;;;;;;7.23;2.40;;;24.20;50.50;;;;;;5070666;28;20266;-75
2023/08/29 03:47:48;;;;;;;5.00;2.70;;;24.40;49.60;;;;;;5069453;28;20194;-69
2023/08/29 03:50:15;;;;;;;7.60;2.40;;;24.10;49.90;;;;;;5071715;28;20860;-68
2023/08/29 03:52:42;;;;;;;6.63;2.57;;;24.30;49.80;;;;;;5071048;28;20241;-67
2023/08/29 03:55:10;;;;;;;5.07;2.13;;;24.30;50.00;;;;;;5072543;28;20187;-68
2023/08/29 03:57:38;;;;;;;4.23;2.60;;;24.50;49.60;;;;;;5071635;28;20672;-67
2023/08/29 04:00:10;;;;;;;7.30;2.63;;;25.10;48.40;;;;;;5067203;28;20179;-68
2023/08/29 04:02:38;;;;;;;3.57;2.33;;;25.30;47.90;;;;;;5069833;28;20229;-67
2023/08/29 04:05:17;;;;;;;3.57;2.20;;;25.30;47.90;;;;;;5069094;28;20515;-68
2023/08/29 04:07:44;;;;;;;5.73;1.90;;;25.40;47.10;;;;;;5071583;28;20205;-69
2023/08/29 04:10:12;;;;;;;5.57;2.50;;;25.20;48.00;;;;;;5072165;28;20210;-68
2023/08/29 04:12:43;;;;;;;3.20;2.17;;;24.80;48.90;;;;;;5071718;28;20194;-72
2023/08/29 04:15:12;;;;;;;6.23;2.23;;;25.20;47.90;;;;;;5070211;28;20271;-66
2023/08/29 04:17:40;;;;;;;7.33;2.43;;;24.80;49.10;;;;;;5064052;28;20207;-66
2023/08/29 04:20:12;;;;;;;4.97;2.43;;;25.10;48.10;;;;;;5069688;28;20202;-72
2023/08/29 04:22:40;;;;;;;7.00;2.23;;;25.10;48.10;;;;;;5070638;28;20527;-68
2023/08/29 04:25:08;;;;;;;5.27;2.97;;;25.10;48.20;;;;;;5069130;28;20202;-66
2023/08/29 04:27:37;;;;;;;6.50;2.70;;;25.60;47.50;;;;;;5071439;28;20187;-69
2023/08/29 04:30:05;;;;;;;5.77;2.60;;;25.70;47.70;;;;;;5070054;28;20236;-68
2023/08/29 04:32:36;;;;;;;5.97;2.70;;;25.90;46.60;;;;;;5071089;28;20223;-68
2023/08/29 04:35:08;;;;;;;4.60;2.30;;;25.70;47.50;;;;;;5071764;28;20179;-67
2023/08/29 04:37:38;;;;;;;6.50;2.57;;;25.80;47.60;;;;;;5071014;28;20222;-67
2023/08/29 04:40:06;;;;;;;5.73;2.57;;;26.00;47.00;;;;;;5067716;28;20167;-66
2023/08/29 04:42:34;;;;;;;4.20;2.50;;;26.00;47.00;;;;;;5071607;28;20179;-66
2023/08/29 04:45:06;;;;;;;6.90;2.97;;;25.80;47.20;;;;;;5073258;28;20183;-69
2023/08/29 04:47:34;;;;;;;5.50;2.20;;;25.70;47.70;;;;;;5075443;28;20182;-66
2023/08/29 04:50:02;;;;;;;14.90;3.37;;;25.30;48.40;;;;;;5071144;28;20179;-67
2023/08/29 04:52:31;;;;;;;4.07;2.47;;;25.80;48.10;;;;;;5075292;28;20257;-69
2023/08/29 04:54:59;;;;;;;6.10;2.43;;;25.50;47.20;;;;;;5075051;28;20182;-69
2023/08/29 04:57:26;;;;;;;5.20;2.77;;;25.50;47.70;;;;;;5074498;28;20221;-70
2023/08/29 04:59:53;;;;;;;5.60;2.27;;;25.60;47.60;;;;;;5073783;28;20171;-72
2023/08/29 05:02:21;;;;;;;5.93;2.40;;;25.40;48.10;;;;;;5072040;28;20221;-68
2023/08/29 05:04:49;;;;;;;8.50;2.57;;;25.90;46.60;;;;;;5072663;28;20740;-66
2023/08/29 05:07:16;;;;;;;6.17;2.80;;;25.70;47.30;;;;;;5074511;28;20187;-68
2023/08/29 05:09:44;;;;;;;6.47;2.70;;;25.30;47.40;;;;;;5072167;28;20182;-67
2023/08/29 05:12:11;;;;;;;5.87;2.83;;;25.30;48.60;;;;;;5075567;28;20178;-71
2023/08/29 05:14:39;;;;;;;8.60;2.57;;;25.10;48.50;;;;;;5074863;28;20206;-66
2023/08/29 05:17:09;;;;;;;7.30;2.20;;;24.80;49.10;;;;;;5073788;28;20242;-70
2023/08/29 05:19:36;;;;;;;7.07;2.27;;;25.20;48.40;;;;;;5074390;28;20174;-67
2023/08/29 05:22:04;;;;;;;7.97;2.30;;;25.60;47.10;;;;;;5074608;28;20546;-68
2023/08/29 05:24:31;;;;;;;7.20;2.00;;;25.90;46.60;;;;;;5073838;28;20550;-71
2023/08/29 05:26:58;;;;;;;6.30;2.00;;;24.90;47.90;;;;;;5074711;28;20209;-72
2023/08/29 05:29:26;;;;;;;4.23;2.20;;;24.80;48.70;;;;;;5074466;28;20175;-67
2023/08/29 05:31:53;;;;;;;8.97;2.27;;;25.50;47.30;;;;;;5073799;28;20641;-66
2023/08/29 05:34:20;;;;;;;5.47;2.30;;;25.30;46.90;;;;;;5074976;28;20176;-70
2023/08/29 05:36:51;;;;;;;4.83;2.40;;;25.30;47.70;;;;;;5073248;28;20210;-66
2023/08/29 05:39:19;;;;;;;6.47;2.27;;;25.00;47.70;;;;;;5072899;28;20194;-66
2023/08/29 05:41:47;;;;;;;6.47;2.67;;;25.00;48.20;;;;;;5071161;28;20182;-70
2023/08/29 05:44:14;;;;;;;9.40;2.10;;;25.30;47.00;;;;;;5071743;28;20601;-67
2023/08/29 05:46:41;;;;;;;6.70;2.17;;;25.30;47.30;;;;;;5071768;28;20168;-67
2023/08/29 05:49:09;;;;;;;8.03;2.17;;;25.20;47.90;;;;;;5073422;28;20197;-68
2023/08/29 05:52:09;;;;;;;5.03;2.30;;;25.00;48.30;;;;;;5073235;28;20214;-74
2023/08/29 05:54:37;;;;;;;6.17;2.57;;;24.50;50.10;;;;;;5072494;28;20646;-67
2023/08/29 05:57:07;;;;;;;6.13;1.90;;;24.90;49.70;;;;;;5073117;28;20207;-70
2023/08/29 05:59:35;;;;;;;6.10;2.47;;;24.20;50.90;;;;;;5070850;28;20328;-67
2023/08/29 06:02:03;;;;;;;3.40;2.03;;;24.20;51.40;;;;;;5072998;28;20187;-70
2023/08/29 06:04:30;;;;;;;7.77;2.47;;;24.30;50.70;;;;;;5072913;28;20201;-66
2023/08/29 06:06:57;;;;;;;6.80;2.20;;;24.30;51.50;;;;;;5072190;28;20245;-68
2023/08/29 06:09:24;;;;;;;6.77;2.30;;;24.80;49.80;;;;;;5071706;28;20549;-67
2023/08/29 06:11:52;;;;;;;6.50;2.70;;;24.60;50.30;;;;;;5071749;28;20206;-66
2023/08/29 06:14:19;;;;;;;6.93;2.77;;;24.30;50.70;;;;;;5069520;28;20328;-67
2023/08/29 06:16:46;;;;;;;5.80;2.30;;;23.90;51.40;;;;;;5071789;28;20214;-65
2023/08/29 06:19:14;;;;;;;6.27;3.00;;;24.00;51.60;;;;;;5073090;28;20258;-68
2023/08/29 06:21:41;;;;;;;6.20;2.30;;;24.00;51.20;;;;;;5072418;28;20524;-69
2023/08/29 06:24:09;;;;;;;12.43;2.87;;;23.90;52.10;;;;;;5070462;28;20183;-65
2023/08/29 06:26:37;;;;;;;5.67;2.50;;;23.80;52.10;;;;;;5070500;28;20175;-66
2023/08/29 06:29:04;;;;;;;9.60;2.77;;;24.00;51.50;;;;;;5072323;28;20184;-68
2023/08/29 06:31:32;;;;;;;7.67;2.63;;;24.20;51.40;;;;;;5072173;28;20202;-68
2023/08/29 06:33:59;;;;;;;5.30;2.53;;;23.90;51.80;;;;;;5071016;28;20265;-70
2023/08/29 06:36:30;;;;;;;4.87;2.60;;;24.00;52.40;;;;;;5071860;28;20175;-68
2023/08/29 06:38:58;;;;;;;8.83;2.73;;;23.90;52.80;;;;;;5070456;28;20246;-67
2023/08/29 06:41:25;;;;;;;4.53;2.57;;;23.90;52.80;;;;;;5071983;28;20509;-65
2023/08/29 06:43:52;;;;;;;8.40;2.47;;;23.00;54.10;;;;;;5070998;28;20190;-73
2023/08/29 06:46:20;;;;;;;5.83;2.33;;;22.50;56.00;;;;;;5072074;28;20183;-71
2023/08/29 06:48:47;;;;;;;8.80;2.30;;;21.70;58.40;;;;;;5070838;28;20638;-67
2023/08/29 06:51:14;;;;;;;7.70;2.63;;;20.80;61.20;;;;;;5071309;28;20667;-72
2023/08/29 06:53:42;;;;;;;8.00;2.40;;;20.50;63.40;;;;;;5071851;28;20286;-66
2023/08/29 06:56:09;;;;;;;8.87;2.50;;;20.20;64.50;;;;;;5070700;28;20219;-66
2023/08/29 06:58:38;;;;;;;5.37;2.60;;;20.00;65.20;;;;;;5069712;28;20224;-66
2023/08/29 07:01:05;;;;;;;9.10;2.97;;;20.00;64.90;;;;;;5070869;28;20183;-65
2023/08/29 07:03:33;;;;;;;4.17;2.90;;;20.00;65.50;;;;;;5070911;28;20249;-66
2023/08/29 07:06:00;;;;;;;8.80;3.07;;;19.90;65.90;;;;;;5070331;28;20183;-72
2023/08/29 07:08:27;;;;;;;8.23;3.20;;;19.80;67.00;;;;;;5068221;28;20191;-66
2023/08/29 07:10:55;;;;;;;5.93;2.90;;;19.70;66.90;;;;;;5069763;28;20182;-69
2023/08/29 07:13:22;;;;;;;8.23;2.57;;;19.60;67.10;;;;;;5069944;28;20175;-66
2023/08/29 07:15:49;;;;;;;6.93;2.60;;;19.60;67.40;;;;;;5069391;28;20541;-70
2023/08/29 07:18:17;;;;;;;10.50;3.43;;;19.50;67.20;;;;;;5072187;28;20264;-70
2023/08/29 07:20:44;;;;;;;6.77;3.00;;;19.50;67.70;;;;;;5071950;28;20674;-69
2023/08/29 07:23:12;;;;;;;11.07;2.97;;;19.30;67.70;;;;;;5073425;28;20194;-70
2023/08/29 07:25:44;;;;;;;6.60;2.80;;;19.30;68.10;;;;;;5071498;28;20673;-69
2023/08/29 07:28:15;;;;;;;5.83;3.10;;;19.20;68.40;;;;;;5070487;28;20258;-74
2023/08/29 07:30:47;;;;;;;7.70;2.90;;;19.10;68.90;;;;;;5065830;28;20179;-70
2023/08/29 07:33:19;;;;;;;11.70;3.30;;;19.00;68.80;;;;;;5072458;28;20693;-69
2023/08/29 07:35:48;;;;;;;11.20;3.50;;;18.90;69.20;;;;;;5071387;28;20237;-72
2023/08/29 07:38:18;;;;;;;9.47;3.13;;;18.90;69.60;;;;;;5074248;28;20669;-70
2023/08/29 07:40:46;;;;;;;8.80;2.93;;;18.90;70.00;;;;;;5076156;28;20567;-71
2023/08/29 07:43:15;;;;;;;6.43;3.00;;;18.80;70.50;;;;;;5077471;28;20247;-72
2023/08/29 07:45:43;;;;;;;5.53;2.97;;;18.80;70.70;;;;;;5075445;28;20171;-71
2023/08/29 07:48:10;;;;;;;14.00;5.60;;;18.80;71.00;;;;;;5075061;28;20175;-73
2023/08/29 07:50:38;;;;;;;11.67;5.03;;;18.80;71.50;;;;;;5074367;28;20780;-69
2023/08/29 07:53:05;;;;;;;10.90;3.73;;;18.80;71.50;;;;;;5073779;28;20175;-71
2023/08/29 07:55:33;;;;;;;12.07;3.10;;;18.80;72.10;;;;;;5072341;28;20367;-71
2023/08/29 07:58:01;;;;;;;7.97;2.90;;;18.80;72.70;;;;;;5071692;28;20708;-70
2023/08/29 08:00:29;;;;;;;8.13;3.53;;;18.80;73.00;;;;;;5071891;28;20167;-71
2023/08/29 08:02:57;;;;;;;7.53;4.07;;;18.80;73.40;;;;;;5065724;28;21142;-71
2023/08/29 08:05:24;;;;;;;7.97;3.87;;;18.80;74.10;;;;;;5069479;28;20225;-70
2023/08/29 08:07:52;;;;;;;12.30;4.63;;;18.80;74.20;;;;;;5071536;28;20536;-70
2023/08/29 08:10:20;;;;;;;9.17;4.10;;;18.70;74.50;;;;;;5068583;28;20187;-72
2023/08/29 08:12:48;;;;;;;6.83;2.90;;;18.70;75.10;;;;;;5069619;28;20190;-73
2023/08/29 08:15:16;;;;;;;8.83;3.23;;;18.70;75.40;;;;;;5070814;28;20179;-69
2023/08/29 08:17:44;;;;;;;7.77;2.60;;;18.70;75.50;;;;;;5067550;28;20616;-70
2023/08/29 08:20:12;;;;;;;9.50;2.63;;;18.70;75.80;;;;;;5068805;28;20209;-67
2023/08/29 08:22:41;;;;;;;9.17;3.00;;;18.60;75.90;;;;;;5071518;28;20638;-69
2023/08/29 08:25:12;;;;;;;12.13;3.37;;;18.60;76.30;;;;;;5070409;28;20178;-73
2023/08/29 08:27:42;;;;;;;10.20;2.83;;;18.60;76.50;;;;;;5064367;28;20186;-72
2023/08/29 08:30:10;;;;;;;6.30;2.67;;;18.60;76.70;;;;;;5066360;28;20205;-72
2023/08/29 08:32:38;;;;;;;10.90;2.97;;;18.50;77.10;;;;;;5070240;28;20229;-72
2023/08/29 08:35:06;;;;;;;7.17;3.03;;;18.50;77.40;;;;;;5071040;28;20182;-71
2023/08/29 08:37:34;;;;;;;6.53;2.70;;;18.50;77.60;;;;;;5069362;28;20255;-73
2023/08/29 08:40:09;;;;;;;6.80;2.37;;;18.40;77.90;;;;;;5070707;28;20211;-72
2023/08/29 08:42:39;;;;;;;9.93;3.47;;;18.40;78.20;;;;;;5069341;28;20633;-67
2023/08/29 08:45:09;;;;;;;9.23;2.53;;;18.40;78.50;;;;;;5067464;28;20176;-71
2023/08/29 08:47:37;;;;;;;9.67;3.63;;;18.40;78.50;;;;;;5070591;28;20175;-70
2023/08/29 08:50:11;;;;;;;9.60;2.80;;;18.30;78.60;;;;;;5071380;28;20187;-71
2023/08/29 08:52:40;;;;;;;7.10;2.70;;;18.30;78.50;;;;;;5070984;28;20719;-68
2023/08/29 08:55:08;;;;;;;10.50;3.37;;;18.30;78.20;;;;;;5073115;28;20224;-70
2023/08/29 08:57:37;;;;;;;14.30;2.97;;;18.30;78.40;;;;;;5070737;28;20699;-69
2023/08/29 09:00:08;;;;;;;10.63;2.67;;;18.30;78.60;;;;;;5067443;28;20199;-68
2023/08/29 09:02:39;;;;;;;4.67;2.50;;;18.30;78.50;;;;;;5066052;28;20542;-70
2023/08/29 09:05:07;;;;;;;11.40;2.83;;;18.30;78.40;;;;;;5070531;28;20180;-72
2023/08/29 09:07:41;;;;;;;10.97;3.10;;;18.30;78.20;;;;;;5069605;28;20270;-72
2023/08/29 09:10:11;;;;;;;8.53;3.10;;;18.30;78.20;;;;;;5069563;28;20753;-71
2023/08/29 09:12:57;;;;;;;7.97;2.90;;;18.30;78.20;;;;;;5069898;28;20548;-69
2023/08/29 09:15:27;;;;;;;6.07;2.33;;;18.30;78.30;;;;;;5066990;28;20247;-69
2023/08/29 09:17:55;;;;;;;7.80;3.13;;;18.20;77.80;;;;;;5069120;28;20245;-68
2023/08/29 09:20:28;;;;;;;7.77;2.87;;;18.30;77.80;;;;;;5061932;28;20270;-69
2023/08/29 09:22:55;;;;;;;6.30;2.97;;;18.20;77.60;;;;;;5071243;28;20182;-68
2023/08/29 09:25:26;;;;;;;9.20;2.67;;;18.20;77.60;;;;;;5070331;28;20637;-65
2023/08/29 09:27:53;;;;;;;7.57;3.43;;;18.20;77.80;;;;;;5069941;28;20544;-68
2023/08/29 09:30:21;;;;;;;8.43;3.20;;;18.30;78.00;;;;;;5072182;28;20196;-69
2023/08/29 09:32:51;;;;;;;10.40;3.10;;;18.30;78.30;;;;;;5074420;28;20237;-68
2023/08/29 09:35:22;;;;;;;7.60;2.77;;;18.30;78.50;;;;;;5072644;28;20182;-72
2023/08/29 09:37:55;;;;;;;11.00;3.20;;;18.30;78.70;;;;;;5073034;28;20551;-67
2023/08/29 09:40:23;;;;;;;8.50;3.07;;;18.20;78.90;;;;;;5074578;28;20170;-65
2023/08/29 09:42:54;;;;;;;11.27;2.80;;;18.20;78.80;;;;;;5071887;28;20216;-66
2023/08/29 09:45:22;;;;;;;6.93;2.53;;;18.20;78.50;;;;;;5069921;28;20544;-67
2023/08/29 09:47:53;;;;;;;12.30;2.77;;;18.20;78.80;;;;;;5073841;28;20187;-71
2023/08/29 09:50:25;;;;;;;8.43;3.43;;;18.20;78.90;;;;;;5072344;28;20168;-70
2023/08/29 09:52:53;;;;;;;7.10;2.63;;;18.10;78.90;;;;;;5072004;28;20493;-67
2023/08/29 09:55:26;;;;;;;8.37;2.50;;;18.10;78.80;;;;;;5071489;28;20179;-71
2023/08/29 09:57:54;;;;;;;10.23;2.90;;;18.10;78.80;;;;;;5071531;28;20303;-70
2023/08/29 10:00:22;;;;;;;9.73;2.90;;;18.10;78.90;;;;;;5074892;28;20175;-70
2023/08/29 10:02:56;;;;;;;10.10;3.57;;;18.10;79.00;;;;;;5072799;28;20654;-72
2023/08/29 10:05:26;;;;;;;10.23;3.33;;;18.10;79.20;;;;;;5074482;28;20183;-69
2023/08/29 10:07:58;;;;;;;8.93;3.33;;;18.10;79.30;;;;;;5073726;28;20186;-71
2023/08/29 10:10:27;;;;;;;9.17;3.30;;;18.00;79.20;;;;;;5072755;28;20800;-70
2023/08/29 10:12:56;;;;;;;6.90;2.87;;;18.00;79.10;;;;;;5071806;28;20266;-72
2023/08/29 10:15:25;;;;;;;9.40;3.07;;;18.10;79.10;;;;;;5073441;28;20210;-72
2023/08/29 10:17:52;;;;;;;21.17;8.87;;;18.10;79.50;;;;;;5073040;28;20684;-67
2023/08/29 10:20:22;;;;;;;17.13;10.07;;;18.00;79.80;;;;;;5073869;28;20253;-70
2023/08/29 10:22:50;;;;;;;11.10;3.40;;;18.00;79.90;;;;;;5076007;28;20715;-69
2023/08/29 10:25:20;;;;;;;8.93;3.03;;;18.00;79.80;;;;;;5073796;28;20195;-71
2023/08/29 10:27:48;;;;;;;7.37;3.13;;;18.00;79.80;;;;;;5072182;28;20197;-69
2023/08/29 10:30:16;;;;;;;9.33;3.30;;;18.00;79.90;;;;;;5071365;28;20183;-70
2023/08/29 10:32:46;;;;;;;8.83;3.00;;;18.00;79.90;;;;;;5072956;28;20244;-68
2023/08/29 10:35:22;;;;;;;5.93;3.13;;;18.00;79.80;;;;;;5073159;28;20202;-70
2023/08/29 10:37:54;;;;;;;9.03;3.40;;;18.00;79.70;;;;;;5071335;28;20214;-65
2023/08/29 10:40:22;;;;;;;5.63;2.73;;;18.00;79.60;;;;;;5072239;28;20185;-71
2023/08/29 10:43:00;;;;;;;6.63;2.80;;;18.00;79.50;;;;;;5072838;28;20179;-68
2023/08/29 10:45:46;;;;;;;7.30;2.97;;;18.00;79.60;;;;;;5070596;28;20180;-67
2023/08/29 10:48:32;;;;;;;10.73;3.57;;;18.00;79.40;;;;;;5072208;28;20294;-67
2023/08/29 10:51:10;;;;;;;9.23;2.77;;;18.00;79.00;;;;;;5071221;28;20277;-66
2023/08/29 10:53:49;;;;;;;11.37;3.90;;;18.00;78.90;;;;;;5072526;28;20345;-69
2023/08/29 10:56:19;;;;;;;8.40;3.17;;;18.00;78.90;;;;;;5074786;28;20214;-68
2023/08/29 10:58:47;;;;;;;7.80;3.10;;;18.00;79.20;;;;;;5071886;28;21254;-65
2023/08/29 11:01:36;;;;;;;5.60;2.50;;;18.00;79.40;;;;;;5072132;28;20203;-70
2023/08/29 11:04:13;;;;;;;6.90;3.50;;;18.00;79.80;;;;;;5071199;28;20185;-68
2023/08/29 11:06:57;;;;;;;7.23;2.67;;;18.00;79.70;;;;;;5071196;28;20177;-66
2023/08/29 11:09:26;;;;;;;9.80;3.50;;;18.00;79.70;;;;;;5071399;28;20175;-71
2023/08/29 11:12:09;;;;;;;6.87;3.13;;;18.00;79.20;;;;;;5071908;28;20198;-66
2023/08/29 11:14:56;;;;;;;11.53;3.47;;;18.00;79.40;;;;;;5069523;28;20263;-70
2023/08/29 11:17:25;;;;;;;7.27;3.37;;;18.00;79.40;;;;;;5070541;28;20222;-72
2023/08/29 11:19:56;;;;;;;13.93;3.83;;;18.00;79.70;;;;;;5071895;28;20171;-66
2023/08/29 11:22:32;;;;;;;9.10;3.67;;;18.00;79.70;;;;;;5070459;28;20292;-70
2023/08/29 11:24:59;;;;;;;11.63;3.50;;;17.90;79.80;;;;;;5072138;28;20174;-68
2023/08/29 11:27:30;;;;;;;10.87;3.97;;;17.90;79.60;;;;;;5068855;28;20653;-67
2023/08/29 11:30:02;;;;;;;9.10;3.37;;;17.80;79.50;;;;;;5070413;28;20179;-67
2023/08/29 11:32:30;;;;;;;6.67;3.53;;;17.90;79.50;;;;;;5071600;28;20219;-73
2023/08/29 11:34:58;;;;;;;6.37;3.87;;;17.80;79.60;;;;;;5070901;28;20187;-72
2023/08/29 11:37:31;;;;;;;6.90;3.70;;;17.80;79.30;;;;;;5069255;28;20198;-70
2023/08/29 11:40:01;;;;;;;10.20;3.37;;;17.80;79.20;;;;;;5072293;28;20179;-70
2023/08/29 11:42:31;;;;;;;7.87;3.50;;;17.80;79.20;;;;;;5068694;28;20228;-72
2023/08/29 11:48:28;;;;;;;8.07;3.80;;;17.70;79.30;;;;;;5068289;28;20702;-71
2023/08/29 11:50:57;;;;;;;8.23;3.80;;;17.60;79.50;;;;;;5071680;28;20203;-70
2023/08/29 11:53:30;;;;;;;7.93;3.33;;;17.50;79.70;;;;;;5071274;28;20194;-69
2023/08/29 11:56:03;;;;;;;8.10;3.80;;;17.50;80.00;;;;;;5074545;28;20755;-70
2023/08/29 11:58:32;;;;;;;7.97;4.27;;;17.40;80.20;;;;;;5073593;28;20707;-71
2023/08/29 12:01:05;;;;;;;8.10;4.00;;;17.30;80.60;;;;;;5072404;28;20184;-72
2023/08/29 12:03:38;;;;;;;8.47;3.77;;;17.30;80.80;;;;;;5072492;28;20183;-67
2023/08/29 12:06:13;;;;;;;10.70;4.20;;;17.30;80.80;;;;;;5071013;28;20183;-69
2023/08/29 12:08:44;;;;;;;7.07;3.83;;;17.30;80.80;;;;;;5070183;28;20182;-68
2023/08/29 12:11:16;;;;;;;14.27;4.70;;;17.30;80.80;;;;;;5072392;28;20328;-67
2023/08/29 12:14:00;;;;;;;7.47;4.00;;;17.20;81.00;;;;;;5070084;28;20187;-66
2023/08/29 12:16:28;;;;;;;9.33;4.83;;;17.20;81.00;;;;;;5072058;28;20636;-65
2023/08/29 12:19:06;;;;;;;10.80;4.70;;;17.20;81.00;;;;;;5071113;28;20356;-69
2023/08/29 12:21:34;;;;;;;11.40;4.83;;;17.20;81.00;;;;;;5067793;28;20189;-68
2023/08/29 12:24:12;;;;;;;8.83;5.17;;;17.20;81.00;;;;;;5070501;28;20186;-69
2023/08/29 12:26:39;;;;;;;13.23;5.50;;;17.10;80.90;;;;;;5068798;28;20595;-65
2023/08/29 12:32:29;;;;;;;10.00;5.17;;;16.90;81.50;;;;;;4890292;28;21546;-68
2023/08/29 12:34:57;;;;;;;12.10;5.37;;;16.80;81.60;;;;;;5065297;28;20270;-66
2023/08/29 12:37:25;;;;;;;8.17;4.77;;;16.80;81.80;;;;;;5070492;28;20241;-66
2023/08/29 12:39:53;;;;;;;9.63;4.97;;;16.70;81.80;;;;;;5071851;28;20186;-66
2023/08/29 12:42:20;;;;;;;6.00;4.97;;;16.60;82.20;;;;;;5071703;28;20189;-69
2023/08/29 12:44:47;;;;;;;10.67;5.00;;;16.50;82.60;;;;;;5069780;28;20534;-67
2023/08/29 12:47:15;;;;;;;9.80;5.13;;;16.40;82.60;;;;;;5071485;28;20193;-67
2023/08/29 12:49:42;;;;;;;12.40;5.30;;;16.30;82.80;;;;;;5070456;28;20200;-71
2023/08/29 12:52:10;;;;;;;10.90;5.03;;;16.30;83.20;;;;;;5071639;28;20179;-68
2023/08/29 12:54:41;;;;;;;7.70;4.47;;;16.30;83.40;;;;;;5071328;28;20607;-65
2023/08/29 12:57:08;;;;;;;11.50;5.20;;;16.20;83.30;;;;;;5068550;28;20206;-69
2023/08/29 12:59:36;;;;;;;8.93;4.97;;;16.20;83.50;;;;;;5068689;28;20655;-66
2023/08/29 13:02:05;;;;;;;10.73;5.57;;;16.20;83.60;;;;;;5070949;28;20180;-66
2023/08/29 13:04:32;;;;;;;8.13;5.10;;;16.20;83.60;;;;;;5071807;28;20185;-72